• Join FlightAware (Why Join?)
  • Login
  • US Flag 
10:12AM EDT


 

Airport Tracker/Info


-or-


 

Live Flight TrackerFlight Track Log ✈ JBU56 ✈ 21-Apr-2013 ✈ KJFK - KBTV

Flight Track Log - Related Links

Times and Time Zones

All times are in EDT time to prevent confusion due to time zone crossing. See the JBU56 flight status page for this flight to view local times or setup timezone preferences in your user account.

Time Position Orientation Groundspeed Altitude Reporting Facility
EDT Latitude Longitude Course Direction KTS MPH feet Rate Location/Type
09:26AM 40.6167 -73.8667 18° North 212 244 2,800  Level New York TRACON
09:27AM 40.5833 -73.8333 143° Southeast 255 293 5,600 2,820 Climbing New York TRACON
09:28AM 40.9636 -73.5932 21° North  Level FlightAware Approximate
09:28AM 40.6167 -73.7333 66° East 310 357 8,800  Level New York TRACON
09:29AM 41.0492 -73.5450 27° Northeast  Level FlightAware Approximate
09:29AM 40.6667 -73.6667 45° Northeast 299 344 11,000  Level New York TRACON
09:30AM 41.1324 -73.4896 27° Northeast  Level FlightAware Approximate
09:31AM 41.2186 -73.4438 14° North  Level FlightAware Approximate
09:31AM 40.8400 -73.5622 25° Northeast 377 434 15,200  Level Boston Center
09:32AM 41.2922 -73.3962 18° North  Level FlightAware Approximate
09:32AM 40.9386 -73.5089 22° Northeast 377 434 17,000  Level Boston Center
09:33AM 41.0392 -73.4500 24° Northeast 385 443 17,100 480 Climbing Boston Center
09:34AM 41.1333 -73.3964 23° Northeast 390 449 18,000 1,380 Climbing Boston Center
09:35AM 41.2239 -73.2764 45° Northeast 403 464 19,900 1,500 Climbing Boston Center
09:36AM 41.3122 -73.1558 46° Northeast 415 478 21,000 540 Climbing Boston Center
09:37AM 41.4250 -73.1322 North 401 461 21,000  Level Boston Center
09:38AM 41.5167 -73.1331 360° North 395 455 21,000  Level Boston Center
09:39AM 41.6481 -73.1403 358° North 390 449 21,000  Level Boston Center
09:41AM 41.7606 -73.1414 360° North 390 449 21,000  Level Boston Center
09:42AM 41.8939 -73.1428 360° North 390 449 21,000  Level Boston Center
09:43AM 42.0064 -73.1442 359° North 395 455 21,000  Level Boston Center
09:44AM 42.1169 -73.1425 North 400 460 21,000  Level Boston Center
09:45AM 42.2294 -73.1439 359° North 400 460 21,000  Level Boston Center
09:46AM 42.3419 -73.1367 North 400 460 21,000  Level Boston Center
09:47AM 42.4733 -73.1381 360° North 400 460 21,000  Level Boston Center
09:48AM 42.5836 -73.1394 359° North 395 455 21,000  Level Boston Center
09:49AM 42.6817 -73.1461 357° North 395 455 21,000  Level Boston Center
09:50AM 42.7942 -73.1475 359° North 395 455 21,000  Level Boston Center
09:51AM 42.8839 -73.1486 359° North 395 455 21,000  Level Boston Center
09:52AM 43.0150 -73.1472 360° North 395 455 21,000  Level Boston Center
09:53AM 43.1275 -73.1483 360° North 395 455 21,000  Level Boston Center
09:54AM 43.2339 -73.1497 359° North 395 455 21,000 -240 Level Boston Center
09:55AM 43.3444 -73.1508 360° North 395 455 20,600 -780 Descending Boston Center
09:56AM 43.4631 -73.1494 360° North 384 442 19,500 -1,200 Descending Boston Center
09:57AM 43.5672 -73.1508 359° North 379 436 18,200 -1,920 Descending Boston Center
09:58AM 43.6653 -73.1519 360° North 369 425 15,700 -2,160 Descending Boston Center
09:59AM 43.7592 -73.1500 North 343 395 13,900 -1,800 Descending Boston Center
10:00AM 43.8528 -73.1511 360° North 330 380 12,200 -1,500 Descending Boston Center
10:01AM 43.9383 -73.1522 359° North 318 366 11,000 -900 Descending Boston Center
10:02AM 44.0050 -73.1386 North 284 327 10,400 -1,020 Descending Boston Center
10:03AM 44.0761 -73.1164 13° North 259 298 9,000 -1,500 Descending Boston Center
10:04AM 44.1389 -73.0708 28° Northeast 249 287 7,400 -1,500 Descending Boston Center
10:05AM 44.1994 -73.0250 28° Northeast 249 287 6,000 -1,020 Descending Boston Center
10:06AM 44.2578 -72.9936 21° North 237 273 5,400 -300 Descending Boston Center
10:07AM 44.3100 -72.9681 19° North 212 244 5,400 -900 Level Boston Center
10:08AM 44.3622 -72.9831 348° North 175 201 3,700 -1,500 Descending Boston Center
10:09AM 44.3953 -73.0297 315° West 173 199 2,500 -1,020 Descending Boston Center
10:10AM 44.4242 -73.0767 311° West 168 193 1,700 -840 Descending Boston Center
10:11AM 44.4489 -73.1147 312° West 146 168 900 4,620 Descending Boston Center
10:12AM 44.4656 -73.1439 309° West 127 146 11,000 5,040 Climbing Boston Center
10:13AM 44.4800 -73.1675 311° West 103 119 11,000  Level Boston Center